sensor_id;sensor_type;location;lat;lon;timestamp;P1;durP1;ratioP1;P2;durP2;ratioP2
51556;SDS011;38766;53.194;5.532;2024-03-08T00:00:12;31.65;;;17.13;;
51556;SDS011;38766;53.194;5.532;2024-03-08T00:02:39;28.42;;;16.15;;
51556;SDS011;38766;53.194;5.532;2024-03-08T00:05:05;30.80;;;17.27;;
51556;SDS011;38766;53.194;5.532;2024-03-08T00:07:35;29.15;;;16.33;;
51556;SDS011;38766;53.194;5.532;2024-03-08T00:10:02;31.10;;;17.58;;
51556;SDS011;38766;53.194;5.532;2024-03-08T00:12:36;28.13;;;16.70;;
51556;SDS011;38766;53.194;5.532;2024-03-08T00:15:02;34.08;;;17.15;;
51556;SDS011;38766;53.194;5.532;2024-03-08T00:17:28;28.42;;;16.17;;
51556;SDS011;38766;53.194;5.532;2024-03-08T00:19:53;31.42;;;16.75;;
51556;SDS011;38766;53.194;5.532;2024-03-08T00:22:19;29.25;;;15.98;;
51556;SDS011;38766;53.194;5.532;2024-03-08T00:24:45;26.95;;;15.10;;
51556;SDS011;38766;53.194;5.532;2024-03-08T00:27:10;29.83;;;16.98;;
51556;SDS011;38766;53.194;5.532;2024-03-08T00:29:36;29.55;;;17.50;;
51556;SDS011;38766;53.194;5.532;2024-03-08T00:32:05;31.27;;;17.15;;
51556;SDS011;38766;53.194;5.532;2024-03-08T00:34:34;34.67;;;17.35;;
51556;SDS011;38766;53.194;5.532;2024-03-08T00:37:01;27.15;;;16.48;;
51556;SDS011;38766;53.194;5.532;2024-03-08T00:39:27;32.92;;;16.45;;
51556;SDS011;38766;53.194;5.532;2024-03-08T00:41:53;29.88;;;17.15;;
51556;SDS011;38766;53.194;5.532;2024-03-08T00:44:18;31.90;;;17.75;;
51556;SDS011;38766;53.194;5.532;2024-03-08T00:46:44;32.20;;;17.40;;
51556;SDS011;38766;53.194;5.532;2024-03-08T00:49:10;25.65;;;15.95;;
51556;SDS011;38766;53.194;5.532;2024-03-08T00:51:37;27.88;;;17.15;;
51556;SDS011;38766;53.194;5.532;2024-03-08T00:54:03;32.28;;;17.52;;
51556;SDS011;38766;53.194;5.532;2024-03-08T00:56:29;33.22;;;17.23;;
51556;SDS011;38766;53.194;5.532;2024-03-08T00:58:54;30.77;;;17.38;;
51556;SDS011;38766;53.194;5.532;2024-03-08T01:01:20;27.42;;;17.20;;
51556;SDS011;38766;53.194;5.532;2024-03-08T01:03:46;31.88;;;18.08;;
51556;SDS011;38766;53.194;5.532;2024-03-08T01:06:11;36.65;;;19.52;;
51556;SDS011;38766;53.194;5.532;2024-03-08T01:08:37;32.40;;;17.02;;
51556;SDS011;38766;53.194;5.532;2024-03-08T01:11:07;33.60;;;19.42;;
51556;SDS011;38766;53.194;5.532;2024-03-08T01:13:34;31.45;;;18.20;;
51556;SDS011;38766;53.194;5.532;2024-03-08T01:15:59;32.38;;;17.83;;
51556;SDS011;38766;53.194;5.532;2024-03-08T01:18:25;34.20;;;18.15;;
51556;SDS011;38766;53.194;5.532;2024-03-08T01:20:51;31.83;;;17.25;;
51556;SDS011;38766;53.194;5.532;2024-03-08T01:23:16;33.20;;;18.25;;
51556;SDS011;38766;53.194;5.532;2024-03-08T01:25:42;30.90;;;17.90;;
51556;SDS011;38766;53.194;5.532;2024-03-08T01:28:09;36.92;;;19.27;;
51556;SDS011;38766;53.194;5.532;2024-03-08T01:30:35;30.05;;;16.58;;
51556;SDS011;38766;53.194;5.532;2024-03-08T01:33:02;30.52;;;18.00;;
51556;SDS011;38766;53.194;5.532;2024-03-08T01:35:28;28.15;;;16.45;;
51556;SDS011;38766;53.194;5.532;2024-03-08T01:37:53;29.10;;;17.33;;
51556;SDS011;38766;53.194;5.532;2024-03-08T01:40:20;31.00;;;17.08;;
51556;SDS011;38766;53.194;5.532;2024-03-08T01:42:46;29.20;;;17.38;;
51556;SDS011;38766;53.194;5.532;2024-03-08T01:45:13;31.63;;;17.77;;
51556;SDS011;38766;53.194;5.532;2024-03-08T01:47:38;35.33;;;19.50;;
51556;SDS011;38766;53.194;5.532;2024-03-08T01:50:04;33.22;;;18.85;;
51556;SDS011;38766;53.194;5.532;2024-03-08T01:52:31;32.22;;;17.42;;
51556;SDS011;38766;53.194;5.532;2024-03-08T01:55:01;33.63;;;18.15;;
51556;SDS011;38766;53.194;5.532;2024-03-08T01:57:29;31.73;;;18.60;;
51556;SDS011;38766;53.194;5.532;2024-03-08T01:59:56;35.30;;;18.50;;
51556;SDS011;38766;53.194;5.532;2024-03-08T02:02:22;31.05;;;18.17;;
51556;SDS011;38766;53.194;5.532;2024-03-08T02:04:48;35.47;;;19.40;;
51556;SDS011;38766;53.194;5.532;2024-03-08T02:07:14;31.40;;;18.75;;
51556;SDS011;38766;53.194;5.532;2024-03-08T02:09:40;34.58;;;18.00;;
51556;SDS011;38766;53.194;5.532;2024-03-08T02:12:06;36.80;;;19.20;;
51556;SDS011;38766;53.194;5.532;2024-03-08T02:14:49;32.55;;;18.17;;
51556;SDS011;38766;53.194;5.532;2024-03-08T02:17:15;37.33;;;20.25;;
51556;SDS011;38766;53.194;5.532;2024-03-08T02:19:40;35.35;;;19.70;;
51556;SDS011;38766;53.194;5.532;2024-03-08T02:22:06;30.00;;;18.05;;
51556;SDS011;38766;53.194;5.532;2024-03-08T02:24:32;35.90;;;19.60;;
51556;SDS011;38766;53.194;5.532;2024-03-08T02:26:58;34.75;;;18.88;;
51556;SDS011;38766;53.194;5.532;2024-03-08T02:29:24;37.80;;;20.90;;
51556;SDS011;38766;53.194;5.532;2024-03-08T02:31:52;39.65;;;21.63;;
51556;SDS011;38766;53.194;5.532;2024-03-08T02:34:18;35.95;;;19.90;;
51556;SDS011;38766;53.194;5.532;2024-03-08T02:36:45;36.45;;;20.98;;
51556;SDS011;38766;53.194;5.532;2024-03-08T02:39:10;38.08;;;20.33;;
51556;SDS011;38766;53.194;5.532;2024-03-08T02:41:36;38.45;;;21.15;;
51556;SDS011;38766;53.194;5.532;2024-03-08T02:44:02;39.67;;;20.70;;
51556;SDS011;38766;53.194;5.532;2024-03-08T02:46:28;38.65;;;20.58;;
51556;SDS011;38766;53.194;5.532;2024-03-08T02:48:55;40.25;;;21.60;;
51556;SDS011;38766;53.194;5.532;2024-03-08T02:51:20;38.10;;;20.65;;
51556;SDS011;38766;53.194;5.532;2024-03-08T02:53:46;34.38;;;20.17;;
51556;SDS011;38766;53.194;5.532;2024-03-08T02:56:15;45.00;;;22.38;;
51556;SDS011;38766;53.194;5.532;2024-03-08T02:58:42;40.65;;;21.98;;
51556;SDS011;38766;53.194;5.532;2024-03-08T03:01:08;40.03;;;21.13;;
51556;SDS011;38766;53.194;5.532;2024-03-08T03:03:35;39.17;;;21.70;;
51556;SDS011;38766;53.194;5.532;2024-03-08T03:06:01;40.42;;;21.75;;
51556;SDS011;38766;53.194;5.532;2024-03-08T03:08:26;43.05;;;22.45;;
51556;SDS011;38766;53.194;5.532;2024-03-08T03:10:52;38.95;;;21.33;;
51556;SDS011;38766;53.194;5.532;2024-03-08T03:13:17;45.17;;;22.45;;
51556;SDS011;38766;53.194;5.532;2024-03-08T03:15:45;44.17;;;22.90;;
51556;SDS011;38766;53.194;5.532;2024-03-08T03:18:11;42.28;;;22.30;;
51556;SDS011;38766;53.194;5.532;2024-03-08T03:20:37;44.72;;;22.73;;
51556;SDS011;38766;53.194;5.532;2024-03-08T03:23:07;39.85;;;22.05;;
51556;SDS011;38766;53.194;5.532;2024-03-08T03:25:34;41.70;;;21.45;;
51556;SDS011;38766;53.194;5.532;2024-03-08T03:28:03;44.10;;;23.27;;
51556;SDS011;38766;53.194;5.532;2024-03-08T03:30:29;46.75;;;23.33;;
51556;SDS011;38766;53.194;5.532;2024-03-08T03:33:00;43.72;;;23.40;;
51556;SDS011;38766;53.194;5.532;2024-03-08T03:35:27;41.80;;;22.50;;
51556;SDS011;38766;53.194;5.532;2024-03-08T03:38:01;42.80;;;21.87;;
51556;SDS011;38766;53.194;5.532;2024-03-08T03:40:38;48.90;;;23.08;;
51556;SDS011;38766;53.194;5.532;2024-03-08T03:43:07;45.70;;;23.00;;
51556;SDS011;38766;53.194;5.532;2024-03-08T03:45:35;43.97;;;24.00;;
51556;SDS011;38766;53.194;5.532;2024-03-08T03:48:01;40.78;;;22.40;;
51556;SDS011;38766;53.194;5.532;2024-03-08T03:50:34;42.47;;;23.00;;
51556;SDS011;38766;53.194;5.532;2024-03-08T03:53:00;37.45;;;22.10;;
51556;SDS011;38766;53.194;5.532;2024-03-08T03:55:27;48.63;;;24.67;;
51556;SDS011;38766;53.194;5.532;2024-03-08T03:57:53;45.83;;;24.45;;
51556;SDS011;38766;53.194;5.532;2024-03-08T04:00:19;48.72;;;24.10;;
51556;SDS011;38766;53.194;5.532;2024-03-08T04:02:45;43.10;;;21.77;;
51556;SDS011;38766;53.194;5.532;2024-03-08T04:05:11;44.13;;;24.02;;
51556;SDS011;38766;53.194;5.532;2024-03-08T04:07:37;43.05;;;23.00;;
51556;SDS011;38766;53.194;5.532;2024-03-08T04:10:03;42.78;;;22.23;;
51556;SDS011;38766;53.194;5.532;2024-03-08T04:12:31;42.97;;;23.92;;
51556;SDS011;38766;53.194;5.532;2024-03-08T04:15:00;40.58;;;23.25;;
51556;SDS011;38766;53.194;5.532;2024-03-08T04:17:26;45.50;;;23.25;;
51556;SDS011;38766;53.194;5.532;2024-03-08T04:19:52;44.17;;;21.92;;
51556;SDS011;38766;53.194;5.532;2024-03-08T04:22:18;42.10;;;23.42;;
51556;SDS011;38766;53.194;5.532;2024-03-08T04:24:44;42.30;;;23.45;;
51556;SDS011;38766;53.194;5.532;2024-03-08T04:27:10;42.80;;;23.15;;
51556;SDS011;38766;53.194;5.532;2024-03-08T04:29:36;41.88;;;21.70;;
51556;SDS011;38766;53.194;5.532;2024-03-08T04:32:03;41.00;;;21.77;;
51556;SDS011;38766;53.194;5.532;2024-03-08T04:34:30;37.08;;;21.52;;
51556;SDS011;38766;53.194;5.532;2024-03-08T04:36:59;40.42;;;21.52;;
51556;SDS011;38766;53.194;5.532;2024-03-08T04:39:25;49.05;;;23.13;;
51556;SDS011;38766;53.194;5.532;2024-03-08T04:41:54;38.45;;;21.75;;
51556;SDS011;38766;53.194;5.532;2024-03-08T04:44:22;39.63;;;22.67;;
51556;SDS011;38766;53.194;5.532;2024-03-08T04:46:49;40.25;;;22.02;;
51556;SDS011;38766;53.194;5.532;2024-03-08T04:49:15;36.13;;;20.67;;
51556;SDS011;38766;53.194;5.532;2024-03-08T04:51:41;45.72;;;22.23;;
51556;SDS011;38766;53.194;5.532;2024-03-08T04:54:06;40.67;;;21.67;;
51556;SDS011;38766;53.194;5.532;2024-03-08T04:56:32;40.22;;;20.88;;
51556;SDS011;38766;53.194;5.532;2024-03-08T04:58:58;40.85;;;21.90;;
51556;SDS011;38766;53.194;5.532;2024-03-08T05:01:24;38.65;;;20.95;;
51556;SDS011;38766;53.194;5.532;2024-03-08T05:03:49;38.00;;;20.90;;
51556;SDS011;38766;53.194;5.532;2024-03-08T05:06:16;37.72;;;20.83;;
51556;SDS011;38766;53.194;5.532;2024-03-08T05:08:42;38.58;;;21.17;;
51556;SDS011;38766;53.194;5.532;2024-03-08T05:11:07;41.33;;;21.55;;
51556;SDS011;38766;53.194;5.532;2024-03-08T05:13:33;36.97;;;20.83;;
51556;SDS011;38766;53.194;5.532;2024-03-08T05:15:59;38.53;;;21.98;;
51556;SDS011;38766;53.194;5.532;2024-03-08T05:18:25;35.78;;;20.67;;
51556;SDS011;38766;53.194;5.532;2024-03-08T05:20:53;41.03;;;21.10;;
51556;SDS011;38766;53.194;5.532;2024-03-08T05:23:18;37.45;;;21.15;;
51556;SDS011;38766;53.194;5.532;2024-03-08T05:25:44;41.45;;;21.67;;
51556;SDS011;38766;53.194;5.532;2024-03-08T05:28:12;39.95;;;21.30;;
51556;SDS011;38766;53.194;5.532;2024-03-08T05:30:38;34.63;;;20.95;;
51556;SDS011;38766;53.194;5.532;2024-03-08T05:33:04;36.47;;;21.70;;
51556;SDS011;38766;53.194;5.532;2024-03-08T05:35:29;39.20;;;21.45;;
51556;SDS011;38766;53.194;5.532;2024-03-08T05:37:55;37.13;;;20.88;;
51556;SDS011;38766;53.194;5.532;2024-03-08T05:40:22;34.95;;;20.40;;
51556;SDS011;38766;53.194;5.532;2024-03-08T05:42:49;42.03;;;22.38;;
51556;SDS011;38766;53.194;5.532;2024-03-08T05:45:14;34.28;;;20.73;;
51556;SDS011;38766;53.194;5.532;2024-03-08T05:47:40;36.00;;;21.02;;
51556;SDS011;38766;53.194;5.532;2024-03-08T05:50:06;33.05;;;20.95;;
51556;SDS011;38766;53.194;5.532;2024-03-08T05:52:36;35.80;;;21.33;;
51556;SDS011;38766;53.194;5.532;2024-03-08T05:55:03;39.20;;;22.15;;
51556;SDS011;38766;53.194;5.532;2024-03-08T05:57:32;42.60;;;21.23;;
51556;SDS011;38766;53.194;5.532;2024-03-08T05:59:58;34.08;;;19.90;;
51556;SDS011;38766;53.194;5.532;2024-03-08T06:02:23;40.65;;;22.00;;
51556;SDS011;38766;53.194;5.532;2024-03-08T06:04:49;38.92;;;21.23;;
51556;SDS011;38766;53.194;5.532;2024-03-08T06:07:15;37.08;;;21.13;;
51556;SDS011;38766;53.194;5.532;2024-03-08T06:09:42;40.53;;;22.05;;
51556;SDS011;38766;53.194;5.532;2024-03-08T06:12:11;36.85;;;21.52;;
51556;SDS011;38766;53.194;5.532;2024-03-08T06:14:36;39.47;;;21.15;;
51556;SDS011;38766;53.194;5.532;2024-03-08T06:17:02;38.95;;;19.85;;
51556;SDS011;38766;53.194;5.532;2024-03-08T06:19:31;36.90;;;20.77;;
51556;SDS011;38766;53.194;5.532;2024-03-08T06:21:56;38.00;;;21.30;;
51556;SDS011;38766;53.194;5.532;2024-03-08T06:24:22;46.42;;;20.95;;
51556;SDS011;38766;53.194;5.532;2024-03-08T06:26:47;34.33;;;20.27;;
51556;SDS011;38766;53.194;5.532;2024-03-08T06:29:13;37.88;;;20.65;;
51556;SDS011;38766;53.194;5.532;2024-03-08T06:31:40;36.13;;;21.48;;
51556;SDS011;38766;53.194;5.532;2024-03-08T06:34:06;39.80;;;21.10;;
51556;SDS011;38766;53.194;5.532;2024-03-08T06:36:33;39.92;;;21.25;;
51556;SDS011;38766;53.194;5.532;2024-03-08T06:38:58;36.30;;;20.92;;
51556;SDS011;38766;53.194;5.532;2024-03-08T06:41:24;35.15;;;20.00;;
51556;SDS011;38766;53.194;5.532;2024-03-08T06:43:50;41.17;;;22.63;;
51556;SDS011;38766;53.194;5.532;2024-03-08T06:46:17;43.75;;;21.65;;
51556;SDS011;38766;53.194;5.532;2024-03-08T06:48:43;37.00;;;21.98;;
51556;SDS011;38766;53.194;5.532;2024-03-08T06:51:10;40.05;;;22.38;;
51556;SDS011;38766;53.194;5.532;2024-03-08T06:53:36;36.55;;;20.58;;
51556;SDS011;38766;53.194;5.532;2024-03-08T06:56:02;36.90;;;20.70;;
51556;SDS011;38766;53.194;5.532;2024-03-08T06:58:28;45.10;;;21.48;;
51556;SDS011;38766;53.194;5.532;2024-03-08T07:00:54;37.97;;;21.05;;
51556;SDS011;38766;53.194;5.532;2024-03-08T07:03:23;38.50;;;21.42;;
51556;SDS011;38766;53.194;5.532;2024-03-08T07:05:49;41.88;;;21.52;;
51556;SDS011;38766;53.194;5.532;2024-03-08T07:08:15;33.72;;;20.63;;
51556;SDS011;38766;53.194;5.532;2024-03-08T07:10:41;37.13;;;20.35;;
51556;SDS011;38766;53.194;5.532;2024-03-08T07:13:07;37.10;;;19.77;;
51556;SDS011;38766;53.194;5.532;2024-03-08T07:15:33;41.20;;;22.58;;
51556;SDS011;38766;53.194;5.532;2024-03-08T07:18:00;37.55;;;21.13;;
51556;SDS011;38766;53.194;5.532;2024-03-08T07:20:26;35.35;;;20.27;;
51556;SDS011;38766;53.194;5.532;2024-03-08T07:22:52;37.28;;;21.08;;
51556;SDS011;38766;53.194;5.532;2024-03-08T07:25:18;37.42;;;20.40;;
51556;SDS011;38766;53.194;5.532;2024-03-08T07:27:55;38.10;;;21.10;;
51556;SDS011;38766;53.194;5.532;2024-03-08T07:30:26;33.70;;;20.30;;
51556;SDS011;38766;53.194;5.532;2024-03-08T07:33:10;40.30;;;20.67;;
51556;SDS011;38766;53.194;5.532;2024-03-08T07:35:40;35.88;;;20.63;;
51556;SDS011;38766;53.194;5.532;2024-03-08T07:38:09;36.67;;;21.25;;
51556;SDS011;38766;53.194;5.532;2024-03-08T07:40:35;36.60;;;20.25;;
51556;SDS011;38766;53.194;5.532;2024-03-08T07:43:04;35.28;;;19.85;;
51556;SDS011;38766;53.194;5.532;2024-03-08T07:45:29;31.70;;;19.55;;
51556;SDS011;38766;53.194;5.532;2024-03-08T07:47:55;32.30;;;19.73;;
51556;SDS011;38766;53.194;5.532;2024-03-08T07:50:21;35.33;;;20.63;;
51556;SDS011;38766;53.194;5.532;2024-03-08T07:52:47;34.58;;;19.05;;
51556;SDS011;38766;53.194;5.532;2024-03-08T07:55:13;34.38;;;19.58;;
51556;SDS011;38766;53.194;5.532;2024-03-08T07:57:40;32.58;;;19.50;;
51556;SDS011;38766;53.194;5.532;2024-03-08T08:00:05;37.03;;;21.17;;
51556;SDS011;38766;53.194;5.532;2024-03-08T08:02:36;34.05;;;19.58;;
51556;SDS011;38766;53.194;5.532;2024-03-08T08:05:01;36.40;;;19.50;;
51556;SDS011;38766;53.194;5.532;2024-03-08T08:07:28;38.53;;;22.00;;
51556;SDS011;38766;53.194;5.532;2024-03-08T08:09:54;31.90;;;19.42;;
51556;SDS011;38766;53.194;5.532;2024-03-08T08:12:20;35.65;;;19.35;;
51556;SDS011;38766;53.194;5.532;2024-03-08T08:14:46;33.30;;;19.33;;
51556;SDS011;38766;53.194;5.532;2024-03-08T08:17:11;31.42;;;19.65;;
51556;SDS011;38766;53.194;5.532;2024-03-08T08:19:37;30.88;;;18.15;;
51556;SDS011;38766;53.194;5.532;2024-03-08T08:22:05;31.23;;;19.73;;
51556;SDS011;38766;53.194;5.532;2024-03-08T08:24:31;31.75;;;18.23;;
51556;SDS011;38766;53.194;5.532;2024-03-08T08:29:41;28.90;;;17.95;;
51556;SDS011;38766;53.194;5.532;2024-03-08T08:32:06;32.05;;;19.48;;
51556;SDS011;38766;53.194;5.532;2024-03-08T08:34:32;31.70;;;18.27;;
51556;SDS011;38766;53.194;5.532;2024-03-08T08:36:57;31.52;;;19.05;;
51556;SDS011;38766;53.194;5.532;2024-03-08T08:39:23;29.77;;;18.80;;
51556;SDS011;38766;53.194;5.532;2024-03-08T08:41:50;33.42;;;19.23;;
51556;SDS011;38766;53.194;5.532;2024-03-08T08:44:16;32.13;;;20.05;;
51556;SDS011;38766;53.194;5.532;2024-03-08T08:46:42;29.80;;;19.35;;
51556;SDS011;38766;53.194;5.532;2024-03-08T08:49:07;35.28;;;20.42;;
51556;SDS011;38766;53.194;5.532;2024-03-08T08:51:36;28.05;;;18.80;;
51556;SDS011;38766;53.194;5.532;2024-03-08T08:54:02;27.63;;;19.27;;
51556;SDS011;38766;53.194;5.532;2024-03-08T08:56:27;30.48;;;19.00;;
51556;SDS011;38766;53.194;5.532;2024-03-08T08:58:53;31.05;;;18.58;;
51556;SDS011;38766;53.194;5.532;2024-03-08T09:01:19;29.13;;;18.98;;
51556;SDS011;38766;53.194;5.532;2024-03-08T09:03:45;32.40;;;19.13;;
51556;SDS011;38766;53.194;5.532;2024-03-08T09:06:15;29.48;;;19.13;;
51556;SDS011;38766;53.194;5.532;2024-03-08T09:08:41;31.98;;;20.10;;
51556;SDS011;38766;53.194;5.532;2024-03-08T09:11:07;29.05;;;18.38;;
51556;SDS011;38766;53.194;5.532;2024-03-08T09:13:33;31.08;;;19.92;;
51556;SDS011;38766;53.194;5.532;2024-03-08T09:16:04;29.88;;;18.67;;
51556;SDS011;38766;53.194;5.532;2024-03-08T09:18:31;29.10;;;18.90;;
51556;SDS011;38766;53.194;5.532;2024-03-08T09:21:00;28.95;;;19.70;;
51556;SDS011;38766;53.194;5.532;2024-03-08T09:23:25;27.70;;;18.50;;
51556;SDS011;38766;53.194;5.532;2024-03-08T09:25:55;27.60;;;18.10;;
51556;SDS011;38766;53.194;5.532;2024-03-08T09:28:22;29.70;;;19.13;;
51556;SDS011;38766;53.194;5.532;2024-03-08T09:30:48;32.50;;;19.83;;
51556;SDS011;38766;53.194;5.532;2024-03-08T09:33:14;35.13;;;19.23;;
51556;SDS011;38766;53.194;5.532;2024-03-08T09:35:44;28.92;;;18.38;;
51556;SDS011;38766;53.194;5.532;2024-03-08T09:38:12;25.80;;;17.95;;
51556;SDS011;38766;53.194;5.532;2024-03-08T09:40:38;27.27;;;17.42;;
51556;SDS011;38766;53.194;5.532;2024-03-08T09:43:06;26.40;;;18.38;;
51556;SDS011;38766;53.194;5.532;2024-03-08T09:45:32;30.77;;;18.20;;
51556;SDS011;38766;53.194;5.532;2024-03-08T09:48:04;29.15;;;19.45;;
51556;SDS011;38766;53.194;5.532;2024-03-08T09:50:31;28.50;;;18.75;;
51556;SDS011;38766;53.194;5.532;2024-03-08T09:52:57;26.10;;;18.45;;
51556;SDS011;38766;53.194;5.532;2024-03-08T09:55:23;28.92;;;18.88;;
51556;SDS011;38766;53.194;5.532;2024-03-08T09:57:53;29.80;;;19.27;;
51556;SDS011;38766;53.194;5.532;2024-03-08T10:03:04;27.60;;;18.55;;
51556;SDS011;38766;53.194;5.532;2024-03-08T10:05:30;29.30;;;19.83;;
51556;SDS011;38766;53.194;5.532;2024-03-08T10:07:58;30.35;;;19.77;;
51556;SDS011;38766;53.194;5.532;2024-03-08T10:10:23;31.23;;;19.08;;
51556;SDS011;38766;53.194;5.532;2024-03-08T10:12:49;33.33;;;20.95;;
51556;SDS011;38766;53.194;5.532;2024-03-08T10:15:16;45.05;;;26.95;;
51556;SDS011;38766;53.194;5.532;2024-03-08T10:17:41;29.08;;;20.17;;
51556;SDS011;38766;53.194;5.532;2024-03-08T10:20:15;27.50;;;18.88;;
51556;SDS011;38766;53.194;5.532;2024-03-08T10:22:42;30.83;;;19.85;;
51556;SDS011;38766;53.194;5.532;2024-03-08T10:25:12;28.40;;;19.55;;
51556;SDS011;38766;53.194;5.532;2024-03-08T10:27:41;28.85;;;19.00;;
51556;SDS011;38766;53.194;5.532;2024-03-08T10:30:10;34.33;;;20.77;;
51556;SDS011;38766;53.194;5.532;2024-03-08T10:32:41;29.20;;;19.88;;
51556;SDS011;38766;53.194;5.532;2024-03-08T10:35:07;29.33;;;19.63;;
51556;SDS011;38766;53.194;5.532;2024-03-08T10:37:33;30.33;;;21.17;;
51556;SDS011;38766;53.194;5.532;2024-03-08T10:40:13;26.73;;;19.73;;
51556;SDS011;38766;53.194;5.532;2024-03-08T10:48:29;27.70;;;18.95;;
51556;SDS011;38766;53.194;5.532;2024-03-08T10:51:02;27.67;;;19.55;;
51556;SDS011;38766;53.194;5.532;2024-03-08T10:53:28;29.75;;;19.75;;
51556;SDS011;38766;53.194;5.532;2024-03-08T10:55:56;35.83;;;20.58;;
51556;SDS011;38766;53.194;5.532;2024-03-08T10:58:22;27.38;;;19.30;;
51556;SDS011;38766;53.194;5.532;2024-03-08T11:00:54;29.13;;;19.63;;
51556;SDS011;38766;53.194;5.532;2024-03-08T11:06:08;29.95;;;20.33;;
51556;SDS011;38766;53.194;5.532;2024-03-08T11:08:42;28.88;;;18.95;;
51556;SDS011;38766;53.194;5.532;2024-03-08T11:11:26;33.10;;;20.40;;
51556;SDS011;38766;53.194;5.532;2024-03-08T11:13:57;25.77;;;18.70;;
51556;SDS011;38766;53.194;5.532;2024-03-08T11:21:56;27.80;;;20.00;;
51556;SDS011;38766;53.194;5.532;2024-03-08T11:24:22;28.27;;;20.37;;
51556;SDS011;38766;53.194;5.532;2024-03-08T11:26:48;29.33;;;19.85;;
51556;SDS011;38766;53.194;5.532;2024-03-08T11:32:11;28.48;;;19.67;;
51556;SDS011;38766;53.194;5.532;2024-03-08T11:34:40;29.98;;;20.40;;
51556;SDS011;38766;53.194;5.532;2024-03-08T11:37:15;29.13;;;20.80;;
51556;SDS011;38766;53.194;5.532;2024-03-08T11:39:46;31.45;;;21.23;;
51556;SDS011;38766;53.194;5.532;2024-03-08T11:42:13;29.35;;;20.73;;
51556;SDS011;38766;53.194;5.532;2024-03-08T11:44:40;28.77;;;20.60;;
51556;SDS011;38766;53.194;5.532;2024-03-08T11:47:09;29.15;;;20.42;;
51556;SDS011;38766;53.194;5.532;2024-03-08T11:49:39;34.85;;;23.05;;
51556;SDS011;38766;53.194;5.532;2024-03-08T11:52:11;33.50;;;21.77;;
51556;SDS011;38766;53.194;5.532;2024-03-08T11:54:38;31.65;;;20.58;;
51556;SDS011;38766;53.194;5.532;2024-03-08T11:57:04;28.77;;;20.80;;
51556;SDS011;38766;53.194;5.532;2024-03-08T11:59:30;30.02;;;20.38;;
51556;SDS011;38766;53.194;5.532;2024-03-08T12:02:06;26.33;;;19.25;;
51556;SDS011;38766;53.194;5.532;2024-03-08T12:04:35;30.02;;;18.67;;
51556;SDS011;38766;53.194;5.532;2024-03-08T12:07:01;29.80;;;20.70;;
51556;SDS011;38766;53.194;5.532;2024-03-08T12:09:28;31.77;;;20.38;;
51556;SDS011;38766;53.194;5.532;2024-03-08T12:11:54;27.88;;;20.25;;
51556;SDS011;38766;53.194;5.532;2024-03-08T12:14:19;28.50;;;19.92;;
51556;SDS011;38766;53.194;5.532;2024-03-08T12:16:46;28.63;;;19.88;;
51556;SDS011;38766;53.194;5.532;2024-03-08T12:19:13;30.40;;;20.25;;
51556;SDS011;38766;53.194;5.532;2024-03-08T12:21:41;27.65;;;20.35;;
51556;SDS011;38766;53.194;5.532;2024-03-08T12:24:13;29.55;;;20.52;;
51556;SDS011;38766;53.194;5.532;2024-03-08T12:26:45;30.10;;;20.75;;
51556;SDS011;38766;53.194;5.532;2024-03-08T12:31:57;26.08;;;19.60;;
51556;SDS011;38766;53.194;5.532;2024-03-08T12:34:25;28.98;;;19.50;;
51556;SDS011;38766;53.194;5.532;2024-03-08T12:36:54;28.23;;;20.13;;
51556;SDS011;38766;53.194;5.532;2024-03-08T12:39:21;28.00;;;19.63;;
51556;SDS011;38766;53.194;5.532;2024-03-08T12:41:51;27.08;;;19.23;;
51556;SDS011;38766;53.194;5.532;2024-03-08T12:44:18;25.92;;;19.25;;
51556;SDS011;38766;53.194;5.532;2024-03-08T12:46:46;28.38;;;20.10;;
51556;SDS011;38766;53.194;5.532;2024-03-08T12:49:13;27.30;;;19.10;;
51556;SDS011;38766;53.194;5.532;2024-03-08T12:51:43;33.78;;;20.77;;
51556;SDS011;38766;53.194;5.532;2024-03-08T12:54:09;29.88;;;19.77;;
51556;SDS011;38766;53.194;5.532;2024-03-08T12:56:35;27.27;;;18.58;;
51556;SDS011;38766;53.194;5.532;2024-03-08T12:59:02;28.13;;;19.40;;
51556;SDS011;38766;53.194;5.532;2024-03-08T13:01:29;28.95;;;20.73;;
51556;SDS011;38766;53.194;5.532;2024-03-08T13:03:57;27.08;;;18.90;;
51556;SDS011;38766;53.194;5.532;2024-03-08T13:06:23;32.65;;;21.05;;
51556;SDS011;38766;53.194;5.532;2024-03-08T13:08:52;27.58;;;19.50;;
51556;SDS011;38766;53.194;5.532;2024-03-08T13:11:18;32.70;;;22.73;;
51556;SDS011;38766;53.194;5.532;2024-03-08T13:13:45;31.50;;;23.13;;
51556;SDS011;38766;53.194;5.532;2024-03-08T13:16:10;45.60;;;21.23;;
51556;SDS011;38766;53.194;5.532;2024-03-08T13:18:39;30.23;;;22.08;;
51556;SDS011;38766;53.194;5.532;2024-03-08T13:21:07;32.85;;;19.88;;
51556;SDS011;38766;53.194;5.532;2024-03-08T13:23:34;27.92;;;20.45;;
51556;SDS011;38766;53.194;5.532;2024-03-08T13:26:04;32.03;;;21.70;;
51556;SDS011;38766;53.194;5.532;2024-03-08T13:28:31;35.67;;;23.88;;
51556;SDS011;38766;53.194;5.532;2024-03-08T13:31:02;35.15;;;23.77;;
51556;SDS011;38766;53.194;5.532;2024-03-08T13:33:38;32.47;;;23.98;;
51556;SDS011;38766;53.194;5.532;2024-03-08T13:36:05;34.45;;;24.70;;
51556;SDS011;38766;53.194;5.532;2024-03-08T13:38:32;30.10;;;21.52;;
51556;SDS011;38766;53.194;5.532;2024-03-08T13:40:58;27.35;;;20.25;;
51556;SDS011;38766;53.194;5.532;2024-03-08T13:43:24;30.77;;;21.17;;
51556;SDS011;38766;53.194;5.532;2024-03-08T13:45:50;28.20;;;20.85;;
51556;SDS011;38766;53.194;5.532;2024-03-08T13:48:17;29.42;;;21.02;;
51556;SDS011;38766;53.194;5.532;2024-03-08T13:50:43;27.17;;;19.25;;
51556;SDS011;38766;53.194;5.532;2024-03-08T13:53:08;25.52;;;19.05;;
51556;SDS011;38766;53.194;5.532;2024-03-08T13:55:35;27.77;;;19.42;;
51556;SDS011;38766;53.194;5.532;2024-03-08T13:58:00;29.70;;;20.70;;
51556;SDS011;38766;53.194;5.532;2024-03-08T14:00:27;28.58;;;20.20;;
51556;SDS011;38766;53.194;5.532;2024-03-08T14:02:58;28.77;;;19.27;;
51556;SDS011;38766;53.194;5.532;2024-03-08T14:05:24;25.13;;;18.63;;
51556;SDS011;38766;53.194;5.532;2024-03-08T14:07:49;31.27;;;20.75;;
51556;SDS011;38766;53.194;5.532;2024-03-08T14:10:15;30.02;;;20.55;;
51556;SDS011;38766;53.194;5.532;2024-03-08T14:12:42;29.23;;;20.77;;
51556;SDS011;38766;53.194;5.532;2024-03-08T14:15:09;30.25;;;20.40;;
51556;SDS011;38766;53.194;5.532;2024-03-08T14:17:36;29.02;;;20.17;;
51556;SDS011;38766;53.194;5.532;2024-03-08T14:20:02;28.00;;;20.55;;
51556;SDS011;38766;53.194;5.532;2024-03-08T14:22:28;29.40;;;20.90;;
51556;SDS011;38766;53.194;5.532;2024-03-08T14:24:56;27.35;;;20.20;;
51556;SDS011;38766;53.194;5.532;2024-03-08T14:27:22;28.05;;;20.00;;
51556;SDS011;38766;53.194;5.532;2024-03-08T14:29:48;26.88;;;19.05;;
51556;SDS011;38766;53.194;5.532;2024-03-08T14:32:13;27.75;;;18.90;;
51556;SDS011;38766;53.194;5.532;2024-03-08T14:34:39;27.35;;;20.30;;
51556;SDS011;38766;53.194;5.532;2024-03-08T14:37:05;26.90;;;19.90;;
51556;SDS011;38766;53.194;5.532;2024-03-08T14:39:36;30.05;;;20.40;;
51556;SDS011;38766;53.194;5.532;2024-03-08T14:42:02;27.52;;;18.52;;
51556;SDS011;38766;53.194;5.532;2024-03-08T14:44:28;27.63;;;18.50;;